createdAt,value
2023-03-02T00:01:45.249Z,100927.25
2023-03-02T00:04:19.058Z,100937.72
2023-03-02T00:06:48.614Z,100936.88
2023-03-02T00:09:20.944Z,100926.66
2023-03-02T00:11:49.758Z,100924.47
2023-03-02T00:14:20.652Z,100929.50
2023-03-02T00:16:52.088Z,100923.34
2023-03-02T00:19:21.666Z,100924.41
2023-03-02T00:21:51.935Z,100918.66
2023-03-02T00:24:20.046Z,100930.25
2023-03-02T00:26:48.198Z,100919.06
2023-03-02T00:29:20.056Z,100916.63
2023-03-02T00:32:02.243Z,100922.00
2023-03-02T00:34:32.258Z,100914.78
2023-03-02T00:37:00.922Z,100905.50
2023-03-02T00:39:30.504Z,100907.41
2023-03-02T00:42:01.413Z,100910.63
2023-03-02T00:44:32.007Z,100912.63
2023-03-02T00:47:00.440Z,100904.66
2023-03-02T00:49:29.364Z,100910.16
2023-03-02T00:51:58.053Z,100911.34
2023-03-02T00:54:26.185Z,100900.63
2023-03-02T00:56:56.370Z,100915.31
2023-03-02T00:59:30.425Z,100906.88
2023-03-02T01:02:18.492Z,100898.31
2023-03-02T01:04:46.891Z,100897.94
2023-03-02T01:07:22.190Z,100903.72
2023-03-02T01:09:50.612Z,100893.34
2023-03-02T01:12:19.406Z,100889.13
2023-03-02T01:14:51.980Z,100888.31
2023-03-02T01:17:22.866Z,100884.56
2023-03-02T01:19:51.241Z,100878.63
2023-03-02T01:22:20.362Z,100875.63
2023-03-02T01:24:48.614Z,100880.53
2023-03-02T01:27:16.908Z,100884.78
2023-03-02T01:29:46.062Z,100878.84
2023-03-02T01:32:14.353Z,100865.97
2023-03-02T01:34:44.110Z,100875.09
2023-03-02T01:37:12.591Z,100873.34
2023-03-02T01:39:40.727Z,100866.13
2023-03-02T01:42:09.534Z,100864.38
2023-03-02T01:44:42.836Z,100866.22
2023-03-02T01:47:18.810Z,100864.94
2023-03-02T01:50:25.420Z,100858.97
2023-03-02T01:53:00.885Z,100855.78
2023-03-02T01:55:32.653Z,100848.38
2023-03-02T01:58:04.158Z,100853.75
2023-03-02T02:00:36.595Z,100851.09
2023-03-02T02:03:11.195Z,100847.44
2023-03-02T02:05:45.321Z,100841.63
2023-03-02T02:08:15.909Z,100838.16
2023-03-02T02:10:46.367Z,100844.22
2023-03-02T02:13:14.734Z,100837.25
2023-03-02T02:15:43.150Z,100839.28
2023-03-02T02:18:11.780Z,100831.03
2023-03-02T02:20:45.225Z,100832.78
2023-03-02T02:23:27.204Z,100829.41
2023-03-02T02:26:06.030Z,100827.69
2023-03-02T02:28:40.620Z,100828.72
2023-03-02T02:31:16.462Z,100823.44
2023-03-02T02:33:50.318Z,100815.94
2023-03-02T02:36:24.336Z,100817.66
2023-03-02T02:38:57.553Z,100822.19
2023-03-02T02:41:30.953Z,100822.84
2023-03-02T02:44:04.450Z,100822.75
2023-03-02T02:46:34.829Z,100820.13
2023-03-02T02:49:04.161Z,100824.47
2023-03-02T02:51:35.717Z,100827.19
2023-03-02T02:54:06.568Z,100821.44
2023-03-02T02:56:40.705Z,100832.06
2023-03-02T02:59:17.577Z,100831.25
2023-03-02T03:01:46.846Z,100830.31
2023-03-02T03:04:19.198Z,100841.66
2023-03-02T03:06:53.212Z,100829.81
2023-03-02T03:09:22.115Z,100825.50
2023-03-02T03:11:57.456Z,100825.22
2023-03-02T03:14:30.803Z,100828.63
2023-03-02T03:16:59.243Z,100827.47
2023-03-02T03:19:30.082Z,100824.66
2023-03-02T03:22:01.214Z,100826.72
2023-03-02T03:24:35.430Z,100820.97
2023-03-02T03:27:08.146Z,100826.94
2023-03-02T03:29:41.325Z,100823.69
2023-03-02T03:32:11.671Z,100817.31
2023-03-02T03:34:41.753Z,100816.38
2023-03-02T03:37:29.211Z,100822.22
2023-03-02T03:39:57.530Z,100815.19
2023-03-02T03:42:29.540Z,100818.47
2023-03-02T03:44:59.770Z,100815.09
2023-03-02T03:47:31.482Z,100814.34
2023-03-02T03:50:01.413Z,100813.69
2023-03-02T03:52:31.505Z,100819.63
2023-03-02T03:55:10.787Z,100816.41
2023-03-02T03:57:41.411Z,100813.78
2023-03-02T04:00:18.249Z,100808.88
2023-03-02T04:02:57.653Z,100813.03
2023-03-02T04:05:31.276Z,100819.88
2023-03-02T04:08:02.343Z,100822.22
2023-03-02T04:10:31.989Z,100808.34
2023-03-02T04:13:01.802Z,100813.22
2023-03-02T04:15:30.613Z,100826.34
2023-03-02T04:18:01.024Z,100816.00
2023-03-02T04:20:29.994Z,100828.41
2023-03-02T04:22:59.160Z,100819.50
2023-03-02T04:25:29.813Z,100832.34
2023-03-02T04:28:05.661Z,100825.00
2023-03-02T04:30:39.587Z,100830.25
2023-03-02T04:33:08.400Z,100826.03
2023-03-02T04:35:37.305Z,100839.66
2023-03-02T04:38:07.310Z,100840.94
2023-03-02T04:40:35.640Z,100834.03
2023-03-02T04:43:05.834Z,100839.56
2023-03-02T04:45:34.677Z,100843.53
2023-03-02T04:48:05.727Z,100833.19
2023-03-02T04:50:34.975Z,100841.06
2023-03-02T04:53:03.191Z,100830.16
2023-03-02T04:55:31.498Z,100835.22
2023-03-02T04:58:01.906Z,100832.38
2023-03-02T05:00:33.958Z,100832.19
2023-03-02T05:03:02.676Z,100828.31
2023-03-02T05:05:31.654Z,100831.66
2023-03-02T05:08:00.748Z,100834.63
2023-03-02T05:10:29.660Z,100836.19
2023-03-02T05:13:06.913Z,100824.78
2023-03-02T05:15:38.700Z,100830.88
2023-03-02T05:18:10.255Z,100829.31
2023-03-02T05:20:39.459Z,100830.13
2023-03-02T05:23:10.268Z,100831.50
2023-03-02T05:25:39.478Z,100827.97
2023-03-02T05:28:07.751Z,100826.50
2023-03-02T05:30:38.174Z,100830.72
2023-03-02T05:33:06.928Z,100824.38
2023-03-02T05:35:35.524Z,100823.19
2023-03-02T05:38:05.239Z,100831.75
2023-03-02T05:40:38.427Z,100824.22
2023-03-02T05:43:08.360Z,100820.66
2023-03-02T05:45:39.826Z,100811.84
2023-03-02T05:48:09.140Z,100818.94
2023-03-02T05:50:37.341Z,100824.88
2023-03-02T05:53:07.548Z,100821.13
2023-03-02T05:55:46.413Z,100822.63
2023-03-02T05:58:17.748Z,100818.41
2023-03-02T06:00:49.806Z,100817.94
2023-03-02T06:03:18.737Z,100825.22
2023-03-02T06:05:52.398Z,100832.31
2023-03-02T06:08:22.559Z,100834.00
2023-03-02T06:10:51.688Z,100836.72
2023-03-02T06:13:23.261Z,100830.81
2023-03-02T06:15:53.020Z,100835.34
2023-03-02T06:18:21.647Z,100832.31
2023-03-02T06:20:50.591Z,100827.19
2023-03-02T06:23:19.124Z,100836.19
2023-03-02T06:25:48.896Z,100833.78
2023-03-02T06:28:20.091Z,100842.03
2023-03-02T06:30:49.748Z,100842.53
2023-03-02T06:33:21.186Z,100845.91
2023-03-02T06:35:51.374Z,100839.34
2023-03-02T06:38:19.694Z,100843.66
2023-03-02T06:40:47.994Z,100841.22
2023-03-02T06:43:16.666Z,100844.81
2023-03-02T06:45:45.369Z,100842.22
2023-03-02T06:48:14.004Z,100849.38
2023-03-02T06:50:46.745Z,100841.28
2023-03-02T06:53:18.362Z,100844.81
2023-03-02T06:55:49.195Z,100858.41
2023-03-02T06:58:17.866Z,100852.81
2023-03-02T07:00:48.903Z,100858.69
2023-03-02T07:03:17.473Z,100857.06
2023-03-02T07:05:49.040Z,100856.63
2023-03-02T07:08:17.922Z,100858.78
2023-03-02T07:10:46.900Z,100844.47
2023-03-02T07:13:15.833Z,100857.69
2023-03-02T07:15:44.739Z,100862.66
2023-03-02T07:18:13.624Z,100865.97
2023-03-02T07:20:42.742Z,100857.41
2023-03-02T07:23:14.529Z,100863.50
2023-03-02T07:25:42.981Z,100859.81
2023-03-02T07:28:12.113Z,100869.25
2023-03-02T07:30:42.882Z,100865.13
2023-03-02T07:33:11.476Z,100865.91
2023-03-02T07:35:40.042Z,100866.47
2023-03-02T07:38:08.462Z,100871.09
2023-03-02T07:40:41.449Z,100871.13
2023-03-02T07:43:10.781Z,100871.66
2023-03-02T07:45:40.053Z,100867.91
2023-03-02T07:48:09.159Z,100872.16
2023-03-02T07:50:37.771Z,100877.41
2023-03-02T07:53:07.519Z,100876.66
2023-03-02T07:55:36.402Z,100875.91
2023-03-02T07:58:06.082Z,100877.66
2023-03-02T08:00:36.642Z,100880.69
2023-03-02T08:03:05.533Z,100880.66
2023-03-02T08:05:35.103Z,100876.63
2023-03-02T08:08:03.464Z,100869.13
2023-03-02T08:10:31.709Z,100873.09
2023-03-02T08:13:00.041Z,100873.56
2023-03-02T08:15:30.201Z,100877.03
2023-03-02T08:17:58.351Z,100874.78
2023-03-02T08:20:27.260Z,100869.34
2023-03-02T08:22:55.944Z,100871.09
2023-03-02T08:25:24.208Z,100873.09
2023-03-02T08:27:52.485Z,100872.84
2023-03-02T08:30:21.810Z,100874.31
2023-03-02T08:32:51.760Z,100877.53
2023-03-02T08:35:22.228Z,100872.03
2023-03-02T08:37:50.849Z,100881.44
2023-03-02T08:40:20.338Z,100882.44
2023-03-02T08:42:49.794Z,100877.38
2023-03-02T08:45:21.143Z,100876.53
2023-03-02T08:47:49.393Z,100873.97
2023-03-02T08:50:20.557Z,100870.44
2023-03-02T08:52:49.346Z,100869.41
2023-03-02T08:55:18.564Z,100866.78
2023-03-02T08:57:47.667Z,100859.94
2023-03-02T09:00:17.136Z,100855.16
2023-03-02T09:02:45.520Z,100852.34
2023-03-02T09:05:16.483Z,100858.16
2023-03-02T09:07:46.062Z,100850.28
2023-03-02T09:10:14.573Z,100851.31
2023-03-02T09:12:43.071Z,100857.78
2023-03-02T09:15:11.941Z,100854.44
2023-03-02T09:17:40.961Z,100852.09
2023-03-02T09:20:11.718Z,100853.19
2023-03-02T09:22:40.504Z,100852.47
2023-03-02T09:25:11.098Z,100856.19
2023-03-02T09:27:39.591Z,100853.09
2023-03-02T09:30:11.260Z,100848.63
2023-03-02T09:32:43.024Z,100850.41
2023-03-02T09:35:12.068Z,100850.88
2023-03-02T09:37:42.731Z,100849.84
2023-03-02T09:40:20.482Z,100852.69
2023-03-02T09:43:00.946Z,100847.00
2023-03-02T09:45:52.908Z,100851.00
2023-03-02T09:48:33.136Z,100847.13
2023-03-02T09:51:16.489Z,100844.75
2023-03-02T09:53:53.860Z,100847.88
2023-03-02T09:56:23.833Z,100838.38
2023-03-02T09:58:57.828Z,100837.47
2023-03-02T10:01:37.263Z,100840.66
2023-03-02T10:04:15.828Z,100843.13
2023-03-02T10:06:44.453Z,100837.28
2023-03-02T10:09:13.295Z,100848.03
2023-03-02T10:11:59.626Z,100840.22
2023-03-02T10:14:35.196Z,100843.63
2023-03-02T10:17:20.533Z,100840.34
2023-03-02T10:19:55.465Z,100843.97
2023-03-02T10:22:30.816Z,100851.69
2023-03-02T10:25:15.463Z,100844.94
2023-03-02T10:27:51.606Z,100845.53
2023-03-02T10:30:28.265Z,100843.31
2023-03-02T10:33:02.243Z,100845.25
2023-03-02T10:35:32.731Z,100835.41
2023-03-02T10:38:12.700Z,100831.56
2023-03-02T10:40:44.336Z,100832.69
2023-03-02T10:43:20.045Z,100832.13
2023-03-02T10:46:02.961Z,100822.56
2023-03-02T10:48:31.363Z,100829.91
2023-03-02T10:51:00.820Z,100819.28
2023-03-02T10:53:29.454Z,100820.56
2023-03-02T10:55:59.389Z,100822.38
2023-03-02T10:58:37.660Z,100827.88
2023-03-02T11:01:08.081Z,100816.16
2023-03-02T11:03:36.754Z,100813.13
2023-03-02T11:06:18.937Z,100807.25
2023-03-02T11:08:48.320Z,100796.69
2023-03-02T11:11:23.257Z,100801.81
2023-03-02T11:13:54.742Z,100808.06
2023-03-02T11:16:29.474Z,100802.53
2023-03-02T11:19:01.997Z,100799.78
2023-03-02T11:21:35.660Z,100807.00
2023-03-02T11:24:14.000Z,100806.06
2023-03-02T11:26:50.661Z,100799.38
2023-03-02T11:29:30.321Z,100788.56
2023-03-02T11:32:02.452Z,100796.50
2023-03-02T11:34:37.531Z,100788.53
2023-03-02T11:37:16.394Z,100781.91
2023-03-02T11:40:02.307Z,100788.72
2023-03-02T11:42:34.551Z,100785.78
2023-03-02T11:45:18.058Z,100787.00
2023-03-02T11:47:57.628Z,100776.25
2023-03-02T11:50:33.771Z,100768.00
2023-03-02T11:53:06.502Z,100775.22
2023-03-02T11:55:41.681Z,100773.09
2023-03-02T11:58:19.420Z,100776.50
2023-03-02T12:00:53.443Z,100767.81
2023-03-02T12:03:38.546Z,100762.88
2023-03-02T12:06:08.996Z,100760.59
2023-03-02T12:08:41.387Z,100759.56
2023-03-02T12:11:35.635Z,100758.66
2023-03-02T12:14:06.606Z,100747.56
2023-03-02T12:16:40.635Z,100740.94
2023-03-02T12:19:28.450Z,100749.31
2023-03-02T12:22:00.385Z,100744.88
2023-03-02T12:24:32.192Z,100750.03
2023-03-02T12:27:06.299Z,100747.31
2023-03-02T12:29:42.449Z,100742.47
2023-03-02T12:32:27.380Z,100748.56
2023-03-02T12:35:00.278Z,100732.81
2023-03-02T12:37:32.915Z,100738.59
2023-03-02T12:40:30.257Z,100730.63
2023-03-02T12:43:20.560Z,100719.72
2023-03-02T12:46:21.486Z,100713.59
2023-03-02T12:49:01.173Z,100714.16
2023-03-02T12:51:31.615Z,100717.50
2023-03-02T12:54:04.467Z,100720.47
2023-03-02T12:56:35.626Z,100711.22
2023-03-02T12:59:04.534Z,100705.50
2023-03-02T13:01:35.956Z,100707.16
2023-03-02T13:04:05.870Z,100704.19
2023-03-02T13:06:40.355Z,100705.28
2023-03-02T13:09:15.965Z,100706.97
2023-03-02T13:11:45.313Z,100704.91
2023-03-02T13:14:22.956Z,100699.19
2023-03-02T13:17:03.914Z,100699.66
2023-03-02T13:19:34.637Z,100698.00
2023-03-02T13:22:05.337Z,100690.03
2023-03-02T13:24:37.676Z,100691.50
2023-03-02T13:27:09.520Z,100685.81
2023-03-02T13:29:38.201Z,100689.66
2023-03-02T13:32:19.273Z,100686.41
2023-03-02T13:34:51.539Z,100678.69
2023-03-02T13:37:23.779Z,100682.78
2023-03-02T13:40:00.022Z,100669.16
2023-03-02T13:42:37.082Z,100676.44
2023-03-02T13:45:26.748Z,100665.81
2023-03-02T13:47:58.309Z,100683.22
2023-03-02T13:50:31.430Z,100671.28
2023-03-02T13:53:06.772Z,100670.47
2023-03-02T13:55:35.950Z,100661.06
2023-03-02T13:58:04.761Z,100652.81
2023-03-02T14:00:36.500Z,100656.78
2023-03-02T14:03:05.040Z,100659.25
2023-03-02T14:05:35.678Z,100659.06
2023-03-02T14:08:06.883Z,100658.09
2023-03-02T14:10:36.687Z,100652.44
2023-03-02T14:13:10.510Z,100653.09
2023-03-02T14:15:42.041Z,100649.22
2023-03-02T14:18:25.432Z,100645.78
2023-03-02T14:20:55.303Z,100650.22
2023-03-02T14:23:24.420Z,100647.00
2023-03-02T14:25:55.571Z,100643.09
2023-03-02T14:28:30.563Z,100647.41
2023-03-02T14:31:02.313Z,100637.94
2023-03-02T14:33:30.580Z,100635.00
2023-03-02T14:36:00.348Z,100634.34
2023-03-02T14:38:28.731Z,100632.34
2023-03-02T14:40:57.568Z,100637.13
2023-03-02T14:43:26.487Z,100628.28
2023-03-02T14:45:55.432Z,100635.63
2023-03-02T14:48:24.135Z,100622.97
2023-03-02T14:50:52.792Z,100619.97
2023-03-02T14:53:29.588Z,100624.06
2023-03-02T14:55:58.033Z,100621.16
2023-03-02T14:58:31.892Z,100627.16
2023-03-02T15:01:01.348Z,100615.75
2023-03-02T15:03:30.036Z,100614.06
2023-03-02T15:06:01.697Z,100626.28
2023-03-02T15:08:33.040Z,100626.97
2023-03-02T15:11:03.210Z,100627.75
2023-03-02T15:13:32.070Z,100629.56
2023-03-02T15:16:02.272Z,100624.78
2023-03-02T15:18:35.855Z,100632.59
2023-03-02T15:21:04.458Z,100628.66
2023-03-02T15:23:35.216Z,100625.06
2023-03-02T15:26:05.069Z,100625.63
2023-03-02T15:28:33.709Z,100629.56
2023-03-02T15:31:07.705Z,100625.75
2023-03-02T15:33:36.231Z,100627.56
2023-03-02T15:36:07.165Z,100632.41
2023-03-02T15:38:38.022Z,100633.09
2023-03-02T15:41:07.887Z,100633.78
2023-03-02T15:43:36.202Z,100635.41
2023-03-02T15:46:06.364Z,100627.69
2023-03-02T15:48:37.963Z,100627.72
2023-03-02T15:51:10.863Z,100626.63
2023-03-02T15:53:42.580Z,100623.31
2023-03-02T15:56:13.964Z,100626.50
2023-03-02T15:58:47.384Z,100622.66
2023-03-02T16:01:16.655Z,100628.63
2023-03-02T16:03:46.643Z,100625.69
2023-03-02T16:06:15.729Z,100621.66
2023-03-02T16:08:45.708Z,100627.56
2023-03-02T16:11:18.638Z,100617.63
2023-03-02T16:13:47.313Z,100618.53
2023-03-02T16:16:15.562Z,100625.19
2023-03-02T16:18:44.079Z,100625.19
2023-03-02T16:21:15.122Z,100628.53
2023-03-02T16:23:44.977Z,100632.03
2023-03-02T16:26:16.341Z,100630.34
2023-03-02T16:28:44.489Z,100634.72
2023-03-02T16:31:15.570Z,100630.97
2023-03-02T16:33:44.804Z,100623.16
2023-03-02T16:36:14.462Z,100628.94
2023-03-02T16:38:45.625Z,100628.16
2023-03-02T16:41:17.022Z,100623.81
2023-03-02T16:43:47.438Z,100637.31
2023-03-02T16:46:17.791Z,100633.97
2023-03-02T16:48:51.582Z,100639.25
2023-03-02T16:51:21.213Z,100638.84
2023-03-02T16:53:52.052Z,100646.44
2023-03-02T16:56:21.419Z,100644.94
2023-03-02T16:58:50.287Z,100654.72
2023-03-02T17:01:21.588Z,100653.78
2023-03-02T17:03:52.154Z,100662.03
2023-03-02T17:06:22.712Z,100664.06
2023-03-02T17:08:52.978Z,100672.59
2023-03-02T17:11:21.956Z,100669.94
2023-03-02T17:13:50.784Z,100669.94
2023-03-02T17:16:19.318Z,100678.22
2023-03-02T17:18:47.988Z,100679.91
2023-03-02T17:21:17.788Z,100673.53
2023-03-02T17:23:48.295Z,100689.63
2023-03-02T17:26:18.650Z,100690.34
2023-03-02T17:28:46.930Z,100683.66
2023-03-02T17:31:15.635Z,100675.88
2023-03-02T17:33:45.375Z,100697.44
2023-03-02T17:36:15.289Z,100693.09
2023-03-02T17:38:44.682Z,100698.50
2023-03-02T17:41:14.179Z,100703.91
2023-03-02T17:43:47.526Z,100703.06
2023-03-02T17:46:20.389Z,100710.94
2023-03-02T17:48:52.427Z,100713.88
2023-03-02T17:51:23.831Z,100719.81
2023-03-02T17:53:54.594Z,100718.41
2023-03-02T17:56:25.206Z,100720.63
2023-03-02T17:58:56.819Z,100719.97
2023-03-02T18:01:26.292Z,100731.25
2023-03-02T18:03:55.300Z,100733.94
2023-03-02T18:06:24.679Z,100733.09
2023-03-02T18:08:53.093Z,100733.16
2023-03-02T18:11:24.352Z,100736.19
2023-03-02T18:13:54.748Z,100738.28
2023-03-02T18:16:29.258Z,100742.59
2023-03-02T18:18:58.545Z,100736.84
2023-03-02T18:21:27.333Z,100745.63
2023-03-02T18:23:56.320Z,100751.63
2023-03-02T18:26:26.759Z,100750.00
2023-03-02T18:28:56.477Z,100750.38
2023-03-02T18:31:29.349Z,100751.91
2023-03-02T18:33:58.890Z,100755.09
2023-03-02T18:36:27.857Z,100756.81
2023-03-02T18:38:59.069Z,100750.63
2023-03-02T18:41:27.705Z,100760.94
2023-03-02T18:43:56.995Z,100752.56
2023-03-02T18:46:29.650Z,100757.13
2023-03-02T18:49:00.386Z,100756.09
2023-03-02T18:51:29.568Z,100761.13
2023-03-02T18:53:58.160Z,100762.72
2023-03-02T18:56:26.854Z,100764.94
2023-03-02T18:58:55.117Z,100762.72
2023-03-02T19:01:23.820Z,100762.31
2023-03-02T19:03:57.196Z,100762.91
2023-03-02T19:06:28.023Z,100762.47
2023-03-02T19:08:57.676Z,100767.28
2023-03-02T19:11:26.145Z,100780.84
2023-03-02T19:13:54.528Z,100774.41
2023-03-02T19:16:22.713Z,100769.16
2023-03-02T19:18:51.866Z,100768.63
2023-03-02T19:21:22.756Z,100769.69
2023-03-02T19:23:50.990Z,100776.72
2023-03-02T19:26:19.597Z,100776.25
2023-03-02T19:28:49.338Z,100784.16
2023-03-02T19:31:17.800Z,100779.88
2023-03-02T19:33:46.269Z,100783.69
2023-03-02T19:36:15.282Z,100779.72
2023-03-02T19:38:44.844Z,100784.75
2023-03-02T19:41:17.271Z,100785.31
2023-03-02T19:43:46.119Z,100783.88
2023-03-02T19:46:15.483Z,100787.38
2023-03-02T19:48:44.145Z,100791.91
2023-03-02T19:51:15.058Z,100785.41
2023-03-02T19:53:47.182Z,100781.94
2023-03-02T19:56:17.320Z,100782.44
2023-03-02T19:58:50.074Z,100782.91
2023-03-02T20:01:24.840Z,100784.44
2023-03-02T20:03:54.306Z,100777.94
2023-03-02T20:06:25.291Z,100790.41
2023-03-02T20:08:55.482Z,100789.91
2023-03-02T20:11:27.129Z,100795.13
2023-03-02T20:13:56.003Z,100798.13
2023-03-02T20:16:24.944Z,100803.84
2023-03-02T20:18:55.462Z,100802.88
2023-03-02T20:21:26.646Z,100811.09
2023-03-02T20:23:58.615Z,100806.09
2023-03-02T20:26:27.935Z,100809.59
2023-03-02T20:28:58.283Z,100805.59
2023-03-02T20:31:27.549Z,100807.59
2023-03-02T20:33:57.423Z,100804.59
2023-03-02T20:36:30.104Z,100809.84
2023-03-02T20:39:05.532Z,100810.81
2023-03-02T20:41:33.904Z,100803.09
2023-03-02T20:44:03.293Z,100806.09
2023-03-02T20:46:34.730Z,100807.84
2023-03-02T20:49:07.018Z,100819.28
2023-03-02T20:51:35.392Z,100827.50
2023-03-02T20:54:06.876Z,100823.53
2023-03-02T20:56:35.372Z,100824.06
2023-03-02T20:59:04.773Z,100823.56
2023-03-02T21:01:33.335Z,100821.56
2023-03-02T21:04:01.869Z,100819.56
2023-03-02T21:06:33.268Z,100820.78
2023-03-02T21:09:04.023Z,100815.78
2023-03-02T21:11:35.091Z,100814.28
2023-03-02T21:14:04.090Z,100819.75
2023-03-02T21:16:36.429Z,100818.28
2023-03-02T21:19:06.474Z,100819.28
2023-03-02T21:21:41.394Z,100821.28
2023-03-02T21:24:12.372Z,100819.75
2023-03-02T21:26:45.139Z,100821.97
2023-03-02T21:29:15.376Z,100830.66
2023-03-02T21:31:44.688Z,100828.13
2023-03-02T21:34:15.837Z,100822.34
2023-03-02T21:36:44.851Z,100828.00
2023-03-02T21:39:15.778Z,100829.19
2023-03-02T21:41:45.911Z,100822.16
2023-03-02T21:44:14.783Z,100833.56
2023-03-02T21:46:46.075Z,100842.25
2023-03-02T21:49:17.527Z,100835.16
2023-03-02T21:51:47.516Z,100830.69
2023-03-02T21:54:17.232Z,100839.00
2023-03-02T21:56:46.856Z,100828.53
2023-03-02T21:59:15.345Z,100831.78
2023-03-02T22:01:43.981Z,100838.97
2023-03-02T22:04:12.432Z,100827.94
2023-03-02T22:06:43.093Z,100830.38
2023-03-02T22:09:12.334Z,100835.53
2023-03-02T22:11:40.660Z,100837.50
2023-03-02T22:14:14.364Z,100837.34
2023-03-02T22:16:46.366Z,100831.84
2023-03-02T22:19:26.404Z,100828.34
2023-03-02T22:21:55.210Z,100835.31
2023-03-02T22:24:26.644Z,100830.72
2023-03-02T22:27:01.942Z,100840.19
2023-03-02T22:29:40.237Z,100852.09
2023-03-02T22:32:16.340Z,100845.41
2023-03-02T22:34:47.155Z,100847.59
2023-03-02T22:37:17.757Z,100844.91
2023-03-02T22:39:46.591Z,100843.63
2023-03-02T22:42:17.180Z,100843.72
2023-03-02T22:44:50.482Z,100845.34
2023-03-02T22:47:21.128Z,100851.13
2023-03-02T22:49:56.432Z,100864.09
2023-03-02T22:52:26.775Z,100864.44
2023-03-02T22:54:55.400Z,100864.16
2023-03-02T22:57:31.190Z,100864.81
2023-03-02T23:00:34.537Z,100863.41
2023-03-02T23:03:02.759Z,100859.53
2023-03-02T23:05:34.855Z,100861.69
2023-03-02T23:08:20.881Z,100856.88
2023-03-02T23:11:08.167Z,100849.06
2023-03-02T23:13:40.892Z,100860.97
2023-03-02T23:16:21.024Z,100860.41
2023-03-02T23:18:51.044Z,100859.88
2023-03-02T23:21:22.784Z,100858.75
2023-03-02T23:23:54.170Z,100857.88
2023-03-02T23:26:23.044Z,100858.28
2023-03-02T23:28:52.468Z,100866.81
2023-03-02T23:31:22.682Z,100863.75
2023-03-02T23:33:51.311Z,100865.63
2023-03-02T23:36:21.101Z,100869.59
2023-03-02T23:38:53.466Z,100869.59
2023-03-02T23:41:21.938Z,100866.31
2023-03-02T23:43:50.212Z,100865.63
2023-03-02T23:46:19.287Z,100860.84
2023-03-02T23:48:55.966Z,100862.22
2023-03-02T23:51:25.436Z,100860.56
2023-03-02T23:53:53.976Z,100863.50
2023-03-02T23:56:24.521Z,100867.53
2023-03-02T23:58:53.474Z,100873.53
